Skip Navigation Links
NOAA logo - Click to go to the NOAA homepage
NOAA's National Weather Service
Alaska Aviation Weather Unit
  NWS logo - Click to go to the NWS homepage
Left Navbar Graphic     00 AKDT = 08 GMT

   
NOAA is celebrating 200 years of science, service, and stewardship. Visit the NOAA 200th celebration Web site to learn more.
USA.gov is the U.S. Government's official Web portal to all Federal, state and local government Web resources and services.
Facebook
NWS on Facebook

Important Change Regarding the AAWU Web Presence

 

Over the last several months, the AAWU has been working to navigate its webpages to a nationally supported server. Security, as well as other needs, have necessitated the change.  In the process, we have made an effort to enhance the functionality of our website, as well as some of our products. As of June 20, 2017, aawu.arh.noaa.gov will be discontinued. The new AAWU web address is weather.gov/aawu. It is now live and will run in-parallel with the old site until it is discontinued. Please send any feedback or questions regarding the new webpages to nws.ar.aawu.webauthors@noaa.gov.  Thank you for your patience during this time of transition.
AAWU Home :: Display TAF Add Bookmark
METAR PASA 240356Z AUTO 10011KT 10SM SCT041 BKN075 BKN100 04/00 A2968
     RMK AO2 SLP051 T00440000 $=

SPECI PASA 240433Z AUTO 14005KT 10SM -RA BKN026 BKN034 OVC041 04/00
     A2968 RMK AO2 RAB22 P0000 $=

SPECI PASA 240446Z AUTO 10010KT 10SM SCT027 OVC032 04/01 A2967 RMK AO2
     RAB22E36 P0000 $=

METAR PASA 240456Z AUTO 09010KT 10SM SCT021 OVC030 03/01 A2967 RMK
 AO2 RAB22E36 SLP050 P0000 T00280006 $=

METAR PASA 240556Z AUTO 09008KT 7SM OVC032 03/01 A2967 RMK AO2
 SLP048 60000 T00280011 10067 20028 58004 $=

METAR PASA 240756Z AUTO 09006KT 8SM FEW100 02/00 A2966 RMK AO2
 RAE01UPB01E04 SLP045 P0000 T00170000 FZRANO $=


NOAA's National Weather Service
Alaska Aviation Weather Unit
6930 Sand Lake Road
Anchorage, AK 99502-1845
Disclaimer
Credits
Glossary
Privacy Policy
About Us
Career Opportunities
Contact AAWU Internet Services Site last modified: April, 17th 2012